sensor_id;sensor_type;location;lat;lon;timestamp;P1;durP1;ratioP1;P2;durP2;ratioP2
29206;SDS011;16247;50.840;4.382;2023-06-10T05:18:58;15.02;;;10.00;;
29206;SDS011;16247;50.840;4.382;2023-06-10T05:21:24;11.90;;;10.55;;
29206;SDS011;16247;50.840;4.382;2023-06-10T05:23:49;15.27;;;10.38;;
29206;SDS011;16247;50.840;4.382;2023-06-10T05:26:15;19.50;;;10.20;;
29206;SDS011;16247;50.840;4.382;2023-06-10T05:28:41;12.02;;;9.48;;
29206;SDS011;16247;50.840;4.382;2023-06-10T05:31:08;12.98;;;10.18;;
29206;SDS011;16247;50.840;4.382;2023-06-10T05:33:33;12.38;;;10.55;;
29206;SDS011;16247;50.840;4.382;2023-06-10T05:35:59;15.18;;;10.95;;
29206;SDS011;16247;50.840;4.382;2023-06-10T05:38:25;11.70;;;10.48;;
29206;SDS011;16247;50.840;4.382;2023-06-10T05:40:50;12.90;;;10.40;;
29206;SDS011;16247;50.840;4.382;2023-06-10T05:43:16;14.40;;;10.52;;
29206;SDS011;16247;50.840;4.382;2023-06-10T05:45:42;11.80;;;10.30;;
29206;SDS011;16247;50.840;4.382;2023-06-10T05:48:07;14.15;;;10.32;;
29206;SDS011;16247;50.840;4.382;2023-06-10T05:50:33;13.60;;;10.50;;
29206;SDS011;16247;50.840;4.382;2023-06-10T05:53:03;12.77;;;10.65;;
29206;SDS011;16247;50.840;4.382;2023-06-10T05:55:31;16.90;;;10.82;;
29206;SDS011;16247;50.840;4.382;2023-06-10T05:58:00;12.20;;;10.45;;
29206;SDS011;16247;50.840;4.382;2023-06-10T06:00:26;13.80;;;10.85;;
29206;SDS011;16247;50.840;4.382;2023-06-10T06:02:52;15.32;;;10.48;;
29206;SDS011;16247;50.840;4.382;2023-06-10T06:05:19;15.40;;;10.73;;
29206;SDS011;16247;50.840;4.382;2023-06-10T06:07:45;12.35;;;10.43;;
29206;SDS011;16247;50.840;4.382;2023-06-10T06:10:10;11.82;;;10.57;;
29206;SDS011;16247;50.840;4.382;2023-06-10T06:12:36;14.27;;;10.35;;
29206;SDS011;16247;50.840;4.382;2023-06-10T06:15:01;15.13;;;10.85;;
29206;SDS011;16247;50.840;4.382;2023-06-10T06:17:28;12.02;;;9.90;;
29206;SDS011;16247;50.840;4.382;2023-06-10T06:19:53;11.32;;;10.23;;
29206;SDS011;16247;50.840;4.382;2023-06-10T06:22:19;16.25;;;9.82;;
29206;SDS011;16247;50.840;4.382;2023-06-10T06:24:47;12.10;;;10.32;;
29206;SDS011;16247;50.840;4.382;2023-06-10T06:27:20;10.93;;;9.85;;
29206;SDS011;16247;50.840;4.382;2023-06-10T06:29:46;12.07;;;10.18;;
29206;SDS011;16247;50.840;4.382;2023-06-10T06:32:11;12.80;;;10.35;;
29206;SDS011;16247;50.840;4.382;2023-06-10T06:34:37;11.65;;;10.35;;
29206;SDS011;16247;50.840;4.382;2023-06-10T06:37:03;10.35;;;9.35;;
29206;SDS011;16247;50.840;4.382;2023-06-10T06:39:29;13.63;;;10.27;;
29206;SDS011;16247;50.840;4.382;2023-06-10T06:41:54;12.48;;;10.02;;
29206;SDS011;16247;50.840;4.382;2023-06-10T06:44:20;10.52;;;8.88;;
29206;SDS011;16247;50.840;4.382;2023-06-10T06:46:46;12.02;;;10.85;;
29206;SDS011;16247;50.840;4.382;2023-06-10T06:49:11;13.15;;;10.10;;
29206;SDS011;16247;50.840;4.382;2023-06-10T06:51:37;13.30;;;9.90;;
29206;SDS011;16247;50.840;4.382;2023-06-10T06:54:02;12.18;;;9.38;;
29206;SDS011;16247;50.840;4.382;2023-06-10T06:56:30;12.50;;;9.60;;
29206;SDS011;16247;50.840;4.382;2023-06-10T06:58:56;21.40;;;10.75;;
29206;SDS011;16247;50.840;4.382;2023-06-10T07:01:22;11.20;;;10.15;;
29206;SDS011;16247;50.840;4.382;2023-06-10T07:03:47;14.57;;;10.38;;
29206;SDS011;16247;50.840;4.382;2023-06-10T07:06:13;12.38;;;10.55;;
29206;SDS011;16247;50.840;4.382;2023-06-10T07:08:39;11.60;;;9.27;;
29206;SDS011;16247;50.840;4.382;2023-06-10T07:11:04;11.60;;;9.45;;
29206;SDS011;16247;50.840;4.382;2023-06-10T07:13:30;11.13;;;9.23;;
29206;SDS011;16247;50.840;4.382;2023-06-10T07:15:56;11.65;;;10.30;;
29206;SDS011;16247;50.840;4.382;2023-06-10T07:18:21;12.20;;;9.73;;
29206;SDS011;16247;50.840;4.382;2023-06-10T07:20:47;12.20;;;10.20;;
29206;SDS011;16247;50.840;4.382;2023-06-10T07:23:12;10.73;;;9.63;;
29206;SDS011;16247;50.840;4.382;2023-06-10T07:25:38;11.02;;;9.68;;
29206;SDS011;16247;50.840;4.382;2023-06-10T07:28:06;13.23;;;9.13;;
29206;SDS011;16247;50.840;4.382;2023-06-10T07:30:32;13.10;;;10.10;;
29206;SDS011;16247;50.840;4.382;2023-06-10T07:32:58;10.27;;;9.00;;
29206;SDS011;16247;50.840;4.382;2023-06-10T07:35:23;10.85;;;8.25;;
29206;SDS011;16247;50.840;4.382;2023-06-10T07:37:49;12.30;;;9.55;;
29206;SDS011;16247;50.840;4.382;2023-06-10T07:40:15;9.43;;;8.48;;
29206;SDS011;16247;50.840;4.382;2023-06-10T07:42:41;10.63;;;8.13;;
29206;SDS011;16247;50.840;4.382;2023-06-10T07:45:08;11.20;;;8.88;;
29206;SDS011;16247;50.840;4.382;2023-06-10T07:47:40;9.38;;;8.48;;
29206;SDS011;16247;50.840;4.382;2023-06-10T07:50:12;9.88;;;9.00;;
29206;SDS011;16247;50.840;4.382;2023-06-10T07:52:40;10.40;;;8.17;;
29206;SDS011;16247;50.840;4.382;2023-06-10T07:55:08;10.13;;;7.47;;
29206;SDS011;16247;50.840;4.382;2023-06-10T07:57:35;12.93;;;8.07;;
29206;SDS011;16247;50.840;4.382;2023-06-10T08:00:02;8.02;;;7.07;;
29206;SDS011;16247;50.840;4.382;2023-06-10T08:02:33;8.57;;;7.65;;
29206;SDS011;16247;50.840;4.382;2023-06-10T08:07:35;9.35;;;8.02;;
29206;SDS011;16247;50.840;4.382;2023-06-10T08:10:43;17.95;;;8.70;;
29206;SDS011;16247;50.840;4.382;2023-06-10T08:13:10;8.90;;;8.00;;
29206;SDS011;16247;50.840;4.382;2023-06-10T08:15:37;11.95;;;7.95;;
29206;SDS011;16247;50.840;4.382;2023-06-10T08:18:11;10.43;;;7.82;;
29206;SDS011;16247;50.840;4.382;2023-06-10T08:20:52;8.23;;;7.40;;
29206;SDS011;16247;50.840;4.382;2023-06-10T08:23:23;9.00;;;8.20;;
29206;SDS011;16247;50.840;4.382;2023-06-10T08:26:01;8.63;;;7.35;;
29206;SDS011;16247;50.840;4.382;2023-06-10T08:28:43;9.82;;;8.27;;
29206;SDS011;16247;50.840;4.382;2023-06-10T08:31:16;11.10;;;7.93;;
29206;SDS011;16247;50.840;4.382;2023-06-10T08:33:42;9.27;;;7.65;;
29206;SDS011;16247;50.840;4.382;2023-06-10T08:36:14;10.95;;;7.43;;
29206;SDS011;16247;50.840;4.382;2023-06-10T08:38:42;10.25;;;7.50;;
29206;SDS011;16247;50.840;4.382;2023-06-10T08:49:46;10.18;;;8.02;;
29206;SDS011;16247;50.840;4.382;2023-06-10T08:52:14;9.52;;;7.78;;
29206;SDS011;16247;50.840;4.382;2023-06-10T08:54:43;10.15;;;8.73;;
29206;SDS011;16247;50.840;4.382;2023-06-10T08:57:21;7.80;;;7.05;;
29206;SDS011;16247;50.840;4.382;2023-06-10T08:59:48;12.00;;;7.47;;
29206;SDS011;16247;50.840;4.382;2023-06-10T09:02:15;8.02;;;7.22;;
29206;SDS011;16247;50.840;4.382;2023-06-10T09:04:42;8.32;;;7.38;;
29206;SDS011;16247;50.840;4.382;2023-06-10T09:07:10;7.55;;;6.72;;
29206;SDS011;16247;50.840;4.382;2023-06-10T09:09:37;8.07;;;7.38;;
29206;SDS011;16247;50.840;4.382;2023-06-10T09:12:04;7.10;;;6.43;;
29206;SDS011;16247;50.840;4.382;2023-06-10T09:17:03;10.00;;;7.65;;
29206;SDS011;16247;50.840;4.382;2023-06-10T09:19:31;10.00;;;7.00;;
29206;SDS011;16247;50.840;4.382;2023-06-10T09:21:59;11.23;;;6.70;;
29206;SDS011;16247;50.840;4.382;2023-06-10T09:24:25;8.20;;;6.80;;
29206;SDS011;16247;50.840;4.382;2023-06-10T09:27:01;7.47;;;6.28;;
29206;SDS011;16247;50.840;4.382;2023-06-10T09:32:39;8.25;;;6.63;;
29206;SDS011;16247;50.840;4.382;2023-06-10T09:37:55;7.80;;;6.38;;
29206;SDS011;16247;50.840;4.382;2023-06-10T09:40:59;6.95;;;6.25;;
29206;SDS011;16247;50.840;4.382;2023-06-10T09:54:21;7.38;;;6.63;;
29206;SDS011;16247;50.840;4.382;2023-06-10T10:17:59;9.85;;;6.10;;
29206;SDS011;16247;50.840;4.382;2023-06-10T10:21:12;7.57;;;6.75;;
29206;SDS011;16247;50.840;4.382;2023-06-10T10:27:21;13.32;;;6.70;;
29206;SDS011;16247;50.840;4.382;2023-06-10T10:33:26;7.15;;;6.18;;
29206;SDS011;16247;50.840;4.382;2023-06-10T10:36:38;7.50;;;6.63;;
29206;SDS011;16247;50.840;4.382;2023-06-10T10:39:42;8.85;;;7.25;;
29206;SDS011;16247;50.840;4.382;2023-06-10T10:42:11;7.65;;;6.22;;
29206;SDS011;16247;50.840;4.382;2023-06-10T10:44:38;7.35;;;6.40;;
29206;SDS011;16247;50.840;4.382;2023-06-10T10:49:45;6.90;;;6.30;;
29206;SDS011;16247;50.840;4.382;2023-06-10T10:52:18;7.60;;;6.85;;
29206;SDS011;16247;50.840;4.382;2023-06-10T10:54:46;6.90;;;6.20;;
29206;SDS011;16247;50.840;4.382;2023-06-10T10:57:17;7.80;;;5.45;;
29206;SDS011;16247;50.840;4.382;2023-06-10T11:06:14;8.23;;;5.85;;
29206;SDS011;16247;50.840;4.382;2023-06-10T11:11:37;8.80;;;6.80;;
29206;SDS011;16247;50.840;4.382;2023-06-10T11:14:35;7.45;;;6.53;;
29206;SDS011;16247;50.840;4.382;2023-06-10T11:17:03;10.80;;;5.57;;
29206;SDS011;16247;50.840;4.382;2023-06-10T11:19:48;8.48;;;5.95;;
29206;SDS011;16247;50.840;4.382;2023-06-10T11:32:04;12.23;;;6.55;;
29206;SDS011;16247;50.840;4.382;2023-06-10T11:57:42;9.27;;;6.43;;
29206;SDS011;16247;50.840;4.382;2023-06-10T12:16:48;6.93;;;6.22;;
29206;SDS011;16247;50.840;4.382;2023-06-10T12:48:56;8.23;;;6.22;;
29206;SDS011;16247;50.840;4.382;2023-06-10T12:51:52;7.32;;;6.72;;
29206;SDS011;16247;50.840;4.382;2023-06-10T18:28:42;13.57;;;8.80;;
29206;SDS011;16247;50.840;4.382;2023-06-10T18:31:28;11.30;;;8.95;;
